sensor_id;sensor_type;location;lat;lon;timestamp;temperature;humidity
11925;DHT22;6022;48.768;18.608;2023-07-29T00:03:23;18.40;99.90
11925;DHT22;6022;48.768;18.608;2023-07-29T00:05:50;18.40;99.90
11925;DHT22;6022;48.768;18.608;2023-07-29T00:08:18;17.40;99.90
11925;DHT22;6022;48.768;18.608;2023-07-29T00:10:45;17.20;99.90
11925;DHT22;6022;48.768;18.608;2023-07-29T00:13:15;18.40;99.90
11925;DHT22;6022;48.768;18.608;2023-07-29T00:15:42;17.60;99.90
11925;DHT22;6022;48.768;18.608;2023-07-29T00:18:09;18.30;99.90
11925;DHT22;6022;48.768;18.608;2023-07-29T00:20:36;18.50;99.90
11925;DHT22;6022;48.768;18.608;2023-07-29T00:23:03;17.50;99.90
11925;DHT22;6022;48.768;18.608;2023-07-29T00:25:30;17.30;99.90
11925;DHT22;6022;48.768;18.608;2023-07-29T00:30:25;18.60;99.90
11925;DHT22;6022;48.768;18.608;2023-07-29T00:32:52;17.50;99.90
11925;DHT22;6022;48.768;18.608;2023-07-29T00:35:20;17.90;99.90
11925;DHT22;6022;48.768;18.608;2023-07-29T00:37:47;18.00;99.90
11925;DHT22;6022;48.768;18.608;2023-07-29T00:40:20;17.50;99.90
11925;DHT22;6022;48.768;18.608;2023-07-29T00:42:49;18.10;99.90
11925;DHT22;6022;48.768;18.608;2023-07-29T00:47:45;17.70;99.90
11925;DHT22;6022;48.768;18.608;2023-07-29T00:50:14;17.40;99.90
11925;DHT22;6022;48.768;18.608;2023-07-29T00:52:41;17.60;99.90
11925;DHT22;6022;48.768;18.608;2023-07-29T00:55:09;17.60;99.90
11925;DHT22;6022;48.768;18.608;2023-07-29T00:57:36;17.40;99.90
11925;DHT22;6022;48.768;18.608;2023-07-29T01:00:03;17.40;99.90
11925;DHT22;6022;48.768;18.608;2023-07-29T01:02:31;17.20;99.90
11925;DHT22;6022;48.768;18.608;2023-07-29T01:05:00;16.80;99.90
11925;DHT22;6022;48.768;18.608;2023-07-29T01:07:39;17.70;99.90
11925;DHT22;6022;48.768;18.608;2023-07-29T01:12:54;17.50;99.90
11925;DHT22;6022;48.768;18.608;2023-07-29T01:15:33;18.30;99.90
11925;DHT22;6022;48.768;18.608;2023-07-29T01:18:31;16.70;99.90
11925;DHT22;6022;48.768;18.608;2023-07-29T01:21:03;17.20;99.90
11925;DHT22;6022;48.768;18.608;2023-07-29T01:23:34;17.00;99.90
11925;DHT22;6022;48.768;18.608;2023-07-29T01:26:03;17.30;99.90
11925;DHT22;6022;48.768;18.608;2023-07-29T01:28:30;16.70;99.90
11925;DHT22;6022;48.768;18.608;2023-07-29T01:31:13;17.50;99.90
11925;DHT22;6022;48.768;18.608;2023-07-29T01:36:49;17.30;99.90
11925;DHT22;6022;48.768;18.608;2023-07-29T01:39:20;16.30;99.90
11925;DHT22;6022;48.768;18.608;2023-07-29T01:41:50;16.80;99.90
11925;DHT22;6022;48.768;18.608;2023-07-29T01:44:18;17.00;99.90
11925;DHT22;6022;48.768;18.608;2023-07-29T01:46:46;16.40;99.90
11925;DHT22;6022;48.768;18.608;2023-07-29T01:49:14;17.90;99.90
11925;DHT22;6022;48.768;18.608;2023-07-29T01:51:41;17.80;99.90
11925;DHT22;6022;48.768;18.608;2023-07-29T01:54:08;17.90;99.90
11925;DHT22;6022;48.768;18.608;2023-07-29T01:56:35;17.40;99.90
11925;DHT22;6022;48.768;18.608;2023-07-29T01:59:02;17.50;99.90
11925;DHT22;6022;48.768;18.608;2023-07-29T02:01:29;17.40;99.90
11925;DHT22;6022;48.768;18.608;2023-07-29T02:03:58;17.40;99.90
11925;DHT22;6022;48.768;18.608;2023-07-29T02:08:55;16.70;99.90
11925;DHT22;6022;48.768;18.608;2023-07-29T02:11:22;16.90;99.90
11925;DHT22;6022;48.768;18.608;2023-07-29T02:13:55;17.30;99.90
11925;DHT22;6022;48.768;18.608;2023-07-29T02:16:22;17.20;99.90
11925;DHT22;6022;48.768;18.608;2023-07-29T02:18:50;17.20;99.90
11925;DHT22;6022;48.768;18.608;2023-07-29T02:21:21;17.00;99.90
11925;DHT22;6022;48.768;18.608;2023-07-29T02:23:48;17.20;99.90
11925;DHT22;6022;48.768;18.608;2023-07-29T02:26:16;16.80;99.90
11925;DHT22;6022;48.768;18.608;2023-07-29T02:28:44;17.00;99.90
11925;DHT22;6022;48.768;18.608;2023-07-29T02:31:17;17.10;99.90
11925;DHT22;6022;48.768;18.608;2023-07-29T02:33:46;16.70;99.90
11925;DHT22;6022;48.768;18.608;2023-07-29T02:36:14;16.70;99.90
11925;DHT22;6022;48.768;18.608;2023-07-29T02:38:41;16.90;99.90
11925;DHT22;6022;48.768;18.608;2023-07-29T02:41:09;17.00;99.90
11925;DHT22;6022;48.768;18.608;2023-07-29T02:43:39;17.10;99.90
11925;DHT22;6022;48.768;18.608;2023-07-29T02:46:08;17.50;99.90
11925;DHT22;6022;48.768;18.608;2023-07-29T02:51:03;17.70;99.90
11925;DHT22;6022;48.768;18.608;2023-07-29T02:53:30;17.00;99.90
11925;DHT22;6022;48.768;18.608;2023-07-29T02:58:25;17.00;99.90
11925;DHT22;6022;48.768;18.608;2023-07-29T03:00:53;17.30;99.90
11925;DHT22;6022;48.768;18.608;2023-07-29T03:05:47;16.40;99.90
11925;DHT22;6022;48.768;18.608;2023-07-29T03:08:15;17.10;99.90
11925;DHT22;6022;48.768;18.608;2023-07-29T03:10:42;17.50;99.90
11925;DHT22;6022;48.768;18.608;2023-07-29T03:15:36;17.30;99.90
11925;DHT22;6022;48.768;18.608;2023-07-29T03:18:04;17.50;99.90
11925;DHT22;6022;48.768;18.608;2023-07-29T03:20:31;17.30;99.90
11925;DHT22;6022;48.768;18.608;2023-07-29T03:22:58;17.20;99.90
11925;DHT22;6022;48.768;18.608;2023-07-29T03:25:25;17.20;99.90
11925;DHT22;6022;48.768;18.608;2023-07-29T03:27:53;17.00;99.90
11925;DHT22;6022;48.768;18.608;2023-07-29T03:30:21;16.70;99.90
11925;DHT22;6022;48.768;18.608;2023-07-29T03:32:49;17.30;99.90
11925;DHT22;6022;48.768;18.608;2023-07-29T03:35:16;16.20;99.90
11925;DHT22;6022;48.768;18.608;2023-07-29T03:37:44;16.80;99.90
11925;DHT22;6022;48.768;18.608;2023-07-29T03:40:11;17.40;99.90
11925;DHT22;6022;48.768;18.608;2023-07-29T03:42:38;16.60;99.90
11925;DHT22;6022;48.768;18.608;2023-07-29T03:45:05;17.10;99.90
11925;DHT22;6022;48.768;18.608;2023-07-29T03:47:33;17.20;99.90
11925;DHT22;6022;48.768;18.608;2023-07-29T03:50:00;17.50;99.90
11925;DHT22;6022;48.768;18.608;2023-07-29T03:54:55;17.40;99.90
11925;DHT22;6022;48.768;18.608;2023-07-29T03:57:22;17.80;99.90
11925;DHT22;6022;48.768;18.608;2023-07-29T03:59:49;17.40;99.90
11925;DHT22;6022;48.768;18.608;2023-07-29T04:02:16;16.90;99.90
11925;DHT22;6022;48.768;18.608;2023-07-29T04:04:43;17.20;99.90
11925;DHT22;6022;48.768;18.608;2023-07-29T04:07:14;17.30;99.90
11925;DHT22;6022;48.768;18.608;2023-07-29T04:09:41;17.00;99.90
11925;DHT22;6022;48.768;18.608;2023-07-29T04:12:10;17.20;99.90
11925;DHT22;6022;48.768;18.608;2023-07-29T04:14:37;17.60;99.90
11925;DHT22;6022;48.768;18.608;2023-07-29T04:17:05;17.40;99.90
11925;DHT22;6022;48.768;18.608;2023-07-29T04:19:34;17.20;99.90
11925;DHT22;6022;48.768;18.608;2023-07-29T04:22:01;17.30;99.90
11925;DHT22;6022;48.768;18.608;2023-07-29T04:24:28;17.30;99.90
11925;DHT22;6022;48.768;18.608;2023-07-29T04:26:55;17.60;99.90
11925;DHT22;6022;48.768;18.608;2023-07-29T04:29:22;17.60;99.90
11925;DHT22;6022;48.768;18.608;2023-07-29T04:31:50;17.80;99.90
11925;DHT22;6022;48.768;18.608;2023-07-29T04:34:18;17.80;99.90
11925;DHT22;6022;48.768;18.608;2023-07-29T04:36:47;17.70;99.90
11925;DHT22;6022;48.768;18.608;2023-07-29T04:39:14;17.30;99.90
11925;DHT22;6022;48.768;18.608;2023-07-29T04:41:42;17.50;99.90
11925;DHT22;6022;48.768;18.608;2023-07-29T04:44:10;17.60;99.90
11925;DHT22;6022;48.768;18.608;2023-07-29T04:46:37;17.70;99.90
11925;DHT22;6022;48.768;18.608;2023-07-29T04:49:05;17.90;99.90
11925;DHT22;6022;48.768;18.608;2023-07-29T04:51:33;17.90;99.90
11925;DHT22;6022;48.768;18.608;2023-07-29T04:54:08;18.10;99.90
11925;DHT22;6022;48.768;18.608;2023-07-29T04:56:35;18.20;99.90
11925;DHT22;6022;48.768;18.608;2023-07-29T04:59:03;18.60;99.90
11925;DHT22;6022;48.768;18.608;2023-07-29T05:01:30;19.50;99.90
11925;DHT22;6022;48.768;18.608;2023-07-29T05:03:57;20.00;99.90
11925;DHT22;6022;48.768;18.608;2023-07-29T05:06:25;19.90;99.90
11925;DHT22;6022;48.768;18.608;2023-07-29T05:08:52;20.00;99.90
11925;DHT22;6022;48.768;18.608;2023-07-29T05:11:19;20.20;99.90
11925;DHT22;6022;48.768;18.608;2023-07-29T05:13:46;20.80;99.90
11925;DHT22;6022;48.768;18.608;2023-07-29T05:16:13;21.10;99.90
11925;DHT22;6022;48.768;18.608;2023-07-29T05:18:41;21.20;99.90
11925;DHT22;6022;48.768;18.608;2023-07-29T05:21:08;22.20;99.90
11925;DHT22;6022;48.768;18.608;2023-07-29T05:23:35;22.80;99.90
11925;DHT22;6022;48.768;18.608;2023-07-29T05:26:02;22.50;99.90
11925;DHT22;6022;48.768;18.608;2023-07-29T05:28:30;22.50;99.90
11925;DHT22;6022;48.768;18.608;2023-07-29T05:31:00;23.40;99.90
11925;DHT22;6022;48.768;18.608;2023-07-29T05:33:28;22.60;99.90
11925;DHT22;6022;48.768;18.608;2023-07-29T05:35:56;21.60;99.90
11925;DHT22;6022;48.768;18.608;2023-07-29T05:38:23;20.90;99.90
11925;DHT22;6022;48.768;18.608;2023-07-29T05:40:50;20.50;99.90
11925;DHT22;6022;48.768;18.608;2023-07-29T05:43:19;20.50;99.90
11925;DHT22;6022;48.768;18.608;2023-07-29T05:45:46;20.70;99.90
11925;DHT22;6022;48.768;18.608;2023-07-29T05:48:14;20.60;99.90
11925;DHT22;6022;48.768;18.608;2023-07-29T05:50:41;20.70;99.90
11925;DHT22;6022;48.768;18.608;2023-07-29T05:53:08;21.30;99.90
11925;DHT22;6022;48.768;18.608;2023-07-29T05:55:35;22.00;99.90
11925;DHT22;6022;48.768;18.608;2023-07-29T05:58:02;22.50;99.90
11925;DHT22;6022;48.768;18.608;2023-07-29T06:00:29;22.70;99.90
11925;DHT22;6022;48.768;18.608;2023-07-29T06:02:56;22.80;99.90
11925;DHT22;6022;48.768;18.608;2023-07-29T06:05:24;23.60;99.90
11925;DHT22;6022;48.768;18.608;2023-07-29T06:07:51;24.90;99.90
11925;DHT22;6022;48.768;18.608;2023-07-29T06:10:24;25.30;99.90
11925;DHT22;6022;48.768;18.608;2023-07-29T06:12:51;25.20;99.90
11925;DHT22;6022;48.768;18.608;2023-07-29T06:15:18;25.00;99.90
11925;DHT22;6022;48.768;18.608;2023-07-29T06:17:49;24.50;99.90
11925;DHT22;6022;48.768;18.608;2023-07-29T06:20:16;24.40;99.90
11925;DHT22;6022;48.768;18.608;2023-07-29T06:22:43;24.80;99.90
11925;DHT22;6022;48.768;18.608;2023-07-29T06:25:10;26.00;99.90
11925;DHT22;6022;48.768;18.608;2023-07-29T06:27:38;26.00;99.90
11925;DHT22;6022;48.768;18.608;2023-07-29T06:30:05;26.00;99.90
11925;DHT22;6022;48.768;18.608;2023-07-29T06:32:34;25.70;99.90
11925;DHT22;6022;48.768;18.608;2023-07-29T06:35:01;24.80;99.90
11925;DHT22;6022;48.768;18.608;2023-07-29T06:37:29;24.40;99.90
11925;DHT22;6022;48.768;18.608;2023-07-29T06:39:56;24.00;99.90
11925;DHT22;6022;48.768;18.608;2023-07-29T06:42:23;23.50;99.90
11925;DHT22;6022;48.768;18.608;2023-07-29T06:44:50;22.90;99.90
11925;DHT22;6022;48.768;18.608;2023-07-29T06:47:17;22.70;99.90
11925;DHT22;6022;48.768;18.608;2023-07-29T06:49:46;22.50;99.90
11925;DHT22;6022;48.768;18.608;2023-07-29T06:52:13;22.40;99.90
11925;DHT22;6022;48.768;18.608;2023-07-29T06:54:41;21.80;99.90
11925;DHT22;6022;48.768;18.608;2023-07-29T06:57:08;22.30;99.90
11925;DHT22;6022;48.768;18.608;2023-07-29T06:59:35;21.70;99.90
11925;DHT22;6022;48.768;18.608;2023-07-29T07:02:03;22.00;99.90
11925;DHT22;6022;48.768;18.608;2023-07-29T07:04:30;21.50;99.90
11925;DHT22;6022;48.768;18.608;2023-07-29T07:06:58;22.00;99.90
11925;DHT22;6022;48.768;18.608;2023-07-29T07:09:25;22.10;99.90
11925;DHT22;6022;48.768;18.608;2023-07-29T07:11:53;22.40;99.90
11925;DHT22;6022;48.768;18.608;2023-07-29T07:14:20;21.80;99.90
11925;DHT22;6022;48.768;18.608;2023-07-29T07:16:47;21.80;99.90
11925;DHT22;6022;48.768;18.608;2023-07-29T07:19:14;21.90;99.90
11925;DHT22;6022;48.768;18.608;2023-07-29T07:21:41;22.40;99.90
11925;DHT22;6022;48.768;18.608;2023-07-29T07:24:08;21.90;99.90
11925;DHT22;6022;48.768;18.608;2023-07-29T07:26:36;22.50;99.90
11925;DHT22;6022;48.768;18.608;2023-07-29T07:31:35;22.60;99.90
11925;DHT22;6022;48.768;18.608;2023-07-29T07:34:02;22.70;99.90
11925;DHT22;6022;48.768;18.608;2023-07-29T07:36:29;22.50;99.90
11925;DHT22;6022;48.768;18.608;2023-07-29T07:38:57;23.00;99.90
11925;DHT22;6022;48.768;18.608;2023-07-29T07:43:52;23.30;99.90
11925;DHT22;6022;48.768;18.608;2023-07-29T07:46:19;23.80;99.90
11925;DHT22;6022;48.768;18.608;2023-07-29T07:51:14;24.10;99.90
11925;DHT22;6022;48.768;18.608;2023-07-29T07:53:41;24.60;99.90
11925;DHT22;6022;48.768;18.608;2023-07-29T08:01:04;23.80;99.90
11925;DHT22;6022;48.768;18.608;2023-07-29T08:06:02;23.50;99.90
11925;DHT22;6022;48.768;18.608;2023-07-29T08:08:29;23.80;99.90
11925;DHT22;6022;48.768;18.608;2023-07-29T08:10:57;23.80;99.90
11925;DHT22;6022;48.768;18.608;2023-07-29T08:13:24;23.70;99.90
11925;DHT22;6022;48.768;18.608;2023-07-29T08:15:52;23.80;99.90
11925;DHT22;6022;48.768;18.608;2023-07-29T08:18:20;24.30;99.90
11925;DHT22;6022;48.768;18.608;2023-07-29T08:20:54;23.80;99.90
11925;DHT22;6022;48.768;18.608;2023-07-29T08:23:22;24.10;99.90
11925;DHT22;6022;48.768;18.608;2023-07-29T08:25:54;24.40;99.90
11925;DHT22;6022;48.768;18.608;2023-07-29T08:28:23;23.50;99.90
11925;DHT22;6022;48.768;18.608;2023-07-29T08:30:50;23.80;99.90
11925;DHT22;6022;48.768;18.608;2023-07-29T08:33:17;24.00;99.90
11925;DHT22;6022;48.768;18.608;2023-07-29T08:35:45;24.00;99.90
11925;DHT22;6022;48.768;18.608;2023-07-29T08:38:12;23.60;99.90
11925;DHT22;6022;48.768;18.608;2023-07-29T08:43:38;23.70;99.90
11925;DHT22;6022;48.768;18.608;2023-07-29T08:48:40;23.70;99.90
11925;DHT22;6022;48.768;18.608;2023-07-29T08:51:09;24.10;99.90
11925;DHT22;6022;48.768;18.608;2023-07-29T08:53:38;24.20;99.90
11925;DHT22;6022;48.768;18.608;2023-07-29T08:56:07;24.30;99.90
11925;DHT22;6022;48.768;18.608;2023-07-29T08:58:42;24.50;99.90
11925;DHT22;6022;48.768;18.608;2023-07-29T09:04:01;24.70;99.90
11925;DHT22;6022;48.768;18.608;2023-07-29T09:06:28;24.60;99.90
11925;DHT22;6022;48.768;18.608;2023-07-29T09:13:53;25.40;99.90
11925;DHT22;6022;48.768;18.608;2023-07-29T09:16:21;25.20;99.90
11925;DHT22;6022;48.768;18.608;2023-07-29T09:18:49;25.40;99.90
11925;DHT22;6022;48.768;18.608;2023-07-29T09:21:24;26.10;99.90
11925;DHT22;6022;48.768;18.608;2023-07-29T09:26:27;25.80;99.90
11925;DHT22;6022;48.768;18.608;2023-07-29T09:28:56;26.50;99.90
11925;DHT22;6022;48.768;18.608;2023-07-29T09:31:26;26.00;99.90
11925;DHT22;6022;48.768;18.608;2023-07-29T09:33:58;26.40;99.90
11925;DHT22;6022;48.768;18.608;2023-07-29T09:36:32;26.50;99.90
11925;DHT22;6022;48.768;18.608;2023-07-29T09:39:01;26.40;99.90
11925;DHT22;6022;48.768;18.608;2023-07-29T09:41:30;26.40;99.90
11925;DHT22;6022;48.768;18.608;2023-07-29T09:44:04;27.00;99.90
11925;DHT22;6022;48.768;18.608;2023-07-29T09:46:37;27.30;99.90
11925;DHT22;6022;48.768;18.608;2023-07-29T09:49:07;27.40;99.90
11925;DHT22;6022;48.768;18.608;2023-07-29T09:51:38;27.50;99.90
11925;DHT22;6022;48.768;18.608;2023-07-29T09:54:06;27.80;99.90
11925;DHT22;6022;48.768;18.608;2023-07-29T09:56:39;28.90;99.90
11925;DHT22;6022;48.768;18.608;2023-07-29T09:59:10;29.00;99.90
11925;DHT22;6022;48.768;18.608;2023-07-29T10:01:39;29.30;99.90
11925;DHT22;6022;48.768;18.608;2023-07-29T10:04:07;29.20;99.90
11925;DHT22;6022;48.768;18.608;2023-07-29T10:06:39;29.20;99.90
11925;DHT22;6022;48.768;18.608;2023-07-29T10:09:11;29.10;99.90
11925;DHT22;6022;48.768;18.608;2023-07-29T10:11:40;29.90;99.90
11925;DHT22;6022;48.768;18.608;2023-07-29T10:16:36;29.10;99.90
11925;DHT22;6022;48.768;18.608;2023-07-29T10:19:07;29.30;99.90
11925;DHT22;6022;48.768;18.608;2023-07-29T10:21:38;29.30;99.90
11925;DHT22;6022;48.768;18.608;2023-07-29T10:24:11;29.20;99.90
11925;DHT22;6022;48.768;18.608;2023-07-29T10:26:46;29.20;99.90
11925;DHT22;6022;48.768;18.608;2023-07-29T10:29:20;29.20;99.90
11925;DHT22;6022;48.768;18.608;2023-07-29T10:31:53;29.20;99.90
11925;DHT22;6022;48.768;18.608;2023-07-29T10:34:24;28.80;99.90
11925;DHT22;6022;48.768;18.608;2023-07-29T10:36:52;29.20;99.90
11925;DHT22;6022;48.768;18.608;2023-07-29T10:39:20;29.00;99.90
11925;DHT22;6022;48.768;18.608;2023-07-29T10:41:58;28.80;99.90
11925;DHT22;6022;48.768;18.608;2023-07-29T10:44:46;29.00;99.90
11925;DHT22;6022;48.768;18.608;2023-07-29T10:49:52;28.20;99.90
11925;DHT22;6022;48.768;18.608;2023-07-29T10:55:03;28.10;99.90
11925;DHT22;6022;48.768;18.608;2023-07-29T10:57:48;28.70;99.90
11925;DHT22;6022;48.768;18.608;2023-07-29T11:00:16;28.80;99.90
11925;DHT22;6022;48.768;18.608;2023-07-29T11:02:57;29.20;99.90
11925;DHT22;6022;48.768;18.608;2023-07-29T11:05:49;29.30;99.90
11925;DHT22;6022;48.768;18.608;2023-07-29T11:08:21;30.00;99.90
11925;DHT22;6022;48.768;18.608;2023-07-29T11:11:02;29.70;99.90
11925;DHT22;6022;48.768;18.608;2023-07-29T11:13:37;29.10;99.90
11925;DHT22;6022;48.768;18.608;2023-07-29T11:16:06;28.40;99.90
11925;DHT22;6022;48.768;18.608;2023-07-29T11:18:35;28.20;99.90
11925;DHT22;6022;48.768;18.608;2023-07-29T11:21:03;29.50;99.90
11925;DHT22;6022;48.768;18.608;2023-07-29T11:23:33;28.90;99.90
11925;DHT22;6022;48.768;18.608;2023-07-29T11:26:03;29.40;99.90
11925;DHT22;6022;48.768;18.608;2023-07-29T11:28:30;29.90;99.90
11925;DHT22;6022;48.768;18.608;2023-07-29T11:36:20;30.80;99.90
11925;DHT22;6022;48.768;18.608;2023-07-29T11:46:21;29.30;99.90
11925;DHT22;6022;48.768;18.608;2023-07-29T11:48:54;29.40;99.90
11925;DHT22;6022;48.768;18.608;2023-07-29T11:51:25;28.90;99.90
11925;DHT22;6022;48.768;18.608;2023-07-29T11:56:21;28.50;99.90
11925;DHT22;6022;48.768;18.608;2023-07-29T12:11:13;26.10;99.90
11925;DHT22;6022;48.768;18.608;2023-07-29T12:13:42;26.20;99.90
11925;DHT22;6022;48.768;18.608;2023-07-29T12:18:43;26.90;99.90
11925;DHT22;6022;48.768;18.608;2023-07-29T12:21:10;26.00;99.90
11925;DHT22;6022;48.768;18.608;2023-07-29T12:26:05;25.90;99.90
11925;DHT22;6022;48.768;18.608;2023-07-29T12:33:35;25.50;99.90
11925;DHT22;6022;48.768;18.608;2023-07-29T13:30:20;27.80;99.90
11925;DHT22;6022;48.768;18.608;2023-07-29T13:37:55;27.40;99.90
11925;DHT22;6022;48.768;18.608;2023-07-29T13:45:39;27.30;99.90
11925;DHT22;6022;48.768;18.608;2023-07-29T13:48:14;27.40;99.90
11925;DHT22;6022;48.768;18.608;2023-07-29T13:53:14;27.80;99.90
11925;DHT22;6022;48.768;18.608;2023-07-29T14:08:05;27.90;99.90
11925;DHT22;6022;48.768;18.608;2023-07-29T14:20:29;27.40;99.90
11925;DHT22;6022;48.768;18.608;2023-07-29T14:27:51;27.50;99.90
11925;DHT22;6022;48.768;18.608;2023-07-29T14:40:10;26.70;99.90
11925;DHT22;6022;48.768;18.608;2023-07-29T14:50:02;27.00;99.90
11925;DHT22;6022;48.768;18.608;2023-07-29T15:09:45;26.40;99.90
11925;DHT22;6022;48.768;18.608;2023-07-29T15:17:08;26.90;99.90
11925;DHT22;6022;48.768;18.608;2023-07-29T15:19:35;26.70;99.90
11925;DHT22;6022;48.768;18.608;2023-07-29T15:22:02;27.00;99.90
11925;DHT22;6022;48.768;18.608;2023-07-29T15:24:31;27.00;99.90
11925;DHT22;6022;48.768;18.608;2023-07-29T15:26:58;27.00;99.90
11925;DHT22;6022;48.768;18.608;2023-07-29T15:31:53;27.00;99.90
11925;DHT22;6022;48.768;18.608;2023-07-29T15:36:50;26.90;99.90
11925;DHT22;6022;48.768;18.608;2023-07-29T15:41:45;27.00;99.90
11925;DHT22;6022;48.768;18.608;2023-07-29T15:49:07;26.20;99.90
11925;DHT22;6022;48.768;18.608;2023-07-29T15:51:35;26.40;99.90
11925;DHT22;6022;48.768;18.608;2023-07-29T15:54:03;26.70;99.90
11925;DHT22;6022;48.768;18.608;2023-07-29T15:58:58;26.70;99.90
11925;DHT22;6022;48.768;18.608;2023-07-29T16:01:25;26.90;99.90
11925;DHT22;6022;48.768;18.608;2023-07-29T16:16:11;26.00;99.90
11925;DHT22;6022;48.768;18.608;2023-07-29T16:48:32;24.60;99.90
11925;DHT22;6022;48.768;18.608;2023-07-29T16:50:59;24.60;99.90
11925;DHT22;6022;48.768;18.608;2023-07-29T17:35:28;23.70;99.90
11925;DHT22;6022;48.768;18.608;2023-07-29T17:50:13;23.70;99.90
11925;DHT22;6022;48.768;18.608;2023-07-29T18:00:06;24.20;99.90
11925;DHT22;6022;48.768;18.608;2023-07-29T18:05:05;23.70;99.90
11925;DHT22;6022;48.768;18.608;2023-07-29T18:19:51;22.30;99.90
11925;DHT22;6022;48.768;18.608;2023-07-29T18:29:41;22.20;99.90
11925;DHT22;6022;48.768;18.608;2023-07-29T18:56:47;21.90;99.90
11925;DHT22;6022;48.768;18.608;2023-07-29T19:11:22;21.30;99.90
11925;DHT22;6022;48.768;18.608;2023-07-29T19:13:49;21.60;99.90
11925;DHT22;6022;48.768;18.608;2023-07-29T19:21:16;21.80;99.90
11925;DHT22;6022;48.768;18.608;2023-07-29T19:23:49;21.50;99.90
11925;DHT22;6022;48.768;18.608;2023-07-29T19:28:49;21.30;99.90
11925;DHT22;6022;48.768;18.608;2023-07-29T19:33:45;21.30;99.90
11925;DHT22;6022;48.768;18.608;2023-07-29T19:36:12;21.60;99.90
11925;DHT22;6022;48.768;18.608;2023-07-29T19:43:34;21.80;99.90
11925;DHT22;6022;48.768;18.608;2023-07-29T19:46:01;21.30;99.90
11925;DHT22;6022;48.768;18.608;2023-07-29T19:48:33;20.50;99.90
11925;DHT22;6022;48.768;18.608;2023-07-29T19:51:00;22.00;99.90
11925;DHT22;6022;48.768;18.608;2023-07-29T19:55:57;21.80;99.90
11925;DHT22;6022;48.768;18.608;2023-07-29T19:58:24;21.50;99.90
11925;DHT22;6022;48.768;18.608;2023-07-29T20:05:47;21.10;99.90
11925;DHT22;6022;48.768;18.608;2023-07-29T20:10:43;20.70;99.90
11925;DHT22;6022;48.768;18.608;2023-07-29T20:15:40;19.80;99.90
11925;DHT22;6022;48.768;18.608;2023-07-29T20:20:35;20.00;99.90
11925;DHT22;6022;48.768;18.608;2023-07-29T20:23:02;19.90;99.90
11925;DHT22;6022;48.768;18.608;2023-07-29T20:42:58;20.80;99.90
11925;DHT22;6022;48.768;18.608;2023-07-29T20:50:22;19.80;99.90
11925;DHT22;6022;48.768;18.608;2023-07-29T20:55:19;20.10;99.90
11925;DHT22;6022;48.768;18.608;2023-07-29T20:57:46;20.30;99.90
11925;DHT22;6022;48.768;18.608;2023-07-29T21:00:13;20.20;99.90
11925;DHT22;6022;48.768;18.608;2023-07-29T21:02:40;21.20;99.90
11925;DHT22;6022;48.768;18.608;2023-07-29T21:05:07;19.40;99.90
11925;DHT22;6022;48.768;18.608;2023-07-29T21:07:35;21.10;99.90
11925;DHT22;6022;48.768;18.608;2023-07-29T21:10:02;20.70;99.90
11925;DHT22;6022;48.768;18.608;2023-07-29T21:12:29;20.40;99.90
11925;DHT22;6022;48.768;18.608;2023-07-29T21:14:57;19.80;99.90
11925;DHT22;6022;48.768;18.608;2023-07-29T21:19:51;19.80;99.90
11925;DHT22;6022;48.768;18.608;2023-07-29T21:22:18;20.00;99.90
11925;DHT22;6022;48.768;18.608;2023-07-29T21:24:45;20.30;99.90
11925;DHT22;6022;48.768;18.608;2023-07-29T21:29:40;20.20;99.90
11925;DHT22;6022;48.768;18.608;2023-07-29T21:32:07;20.10;99.90
11925;DHT22;6022;48.768;18.608;2023-07-29T21:39:32;19.70;99.90
11925;DHT22;6022;48.768;18.608;2023-07-29T21:41:59;19.60;99.90
11925;DHT22;6022;48.768;18.608;2023-07-29T21:49:21;21.00;99.90
11925;DHT22;6022;48.768;18.608;2023-07-29T21:51:48;19.30;99.90
11925;DHT22;6022;48.768;18.608;2023-07-29T21:54:15;19.20;99.90
11925;DHT22;6022;48.768;18.608;2023-07-29T22:04:05;19.20;99.90
11925;DHT22;6022;48.768;18.608;2023-07-29T22:06:32;19.70;99.90
11925;DHT22;6022;48.768;18.608;2023-07-29T22:08:59;19.50;99.90
11925;DHT22;6022;48.768;18.608;2023-07-29T22:11:26;18.90;99.90
11925;DHT22;6022;48.768;18.608;2023-07-29T22:13:55;19.30;99.90
11925;DHT22;6022;48.768;18.608;2023-07-29T22:21:18;19.60;99.90
11925;DHT22;6022;48.768;18.608;2023-07-29T22:28:53;19.30;99.90
11925;DHT22;6022;48.768;18.608;2023-07-29T22:31:21;18.90;99.90
11925;DHT22;6022;48.768;18.608;2023-07-29T22:33:50;19.20;99.90
11925;DHT22;6022;48.768;18.608;2023-07-29T22:36:17;19.80;99.90
11925;DHT22;6022;48.768;18.608;2023-07-29T22:43:42;19.80;99.90
11925;DHT22;6022;48.768;18.608;2023-07-29T22:46:09;19.50;99.90
11925;DHT22;6022;48.768;18.608;2023-07-29T22:48:37;18.90;99.90
11925;DHT22;6022;48.768;18.608;2023-07-29T22:53:32;19.50;99.90
11925;DHT22;6022;48.768;18.608;2023-07-29T22:55:59;19.10;99.90
11925;DHT22;6022;48.768;18.608;2023-07-29T22:58:26;19.40;99.90
11925;DHT22;6022;48.768;18.608;2023-07-29T23:00:55;19.60;99.90
11925;DHT22;6022;48.768;18.608;2023-07-29T23:03:23;19.30;99.90
11925;DHT22;6022;48.768;18.608;2023-07-29T23:05:51;18.50;99.90
11925;DHT22;6022;48.768;18.608;2023-07-29T23:08:19;18.90;99.90
11925;DHT22;6022;48.768;18.608;2023-07-29T23:10:46;18.90;99.90
11925;DHT22;6022;48.768;18.608;2023-07-29T23:13:13;19.70;99.90
11925;DHT22;6022;48.768;18.608;2023-07-29T23:18:11;19.40;99.90
11925;DHT22;6022;48.768;18.608;2023-07-29T23:20:38;19.40;99.90
11925;DHT22;6022;48.768;18.608;2023-07-29T23:23:06;19.00;99.90
11925;DHT22;6022;48.768;18.608;2023-07-29T23:28:00;19.10;99.90
11925;DHT22;6022;48.768;18.608;2023-07-29T23:30:28;19.20;99.90
11925;DHT22;6022;48.768;18.608;2023-07-29T23:32:55;17.80;99.90
11925;DHT22;6022;48.768;18.608;2023-07-29T23:35:22;19.30;99.90
11925;DHT22;6022;48.768;18.608;2023-07-29T23:37:49;19.00;99.90
11925;DHT22;6022;48.768;18.608;2023-07-29T23:42:44;19.30;99.90
11925;DHT22;6022;48.768;18.608;2023-07-29T23:45:11;19.30;99.90
11925;DHT22;6022;48.768;18.608;2023-07-29T23:47:38;17.70;99.90
11925;DHT22;6022;48.768;18.608;2023-07-29T23:50:06;18.00;99.90
11925;DHT22;6022;48.768;18.608;2023-07-29T23:52:34;18.60;99.90
11925;DHT22;6022;48.768;18.608;2023-07-29T23:55:02;19.40;99.90
11925;DHT22;6022;48.768;18.608;2023-07-29T23:57:30;18.70;99.90
11925;DHT22;6022;48.768;18.608;2023-07-29T23:59:57;18.80;99.90
